createdAt,value
2022-10-09T00:01:18.816Z,4.10
2022-10-09T00:03:47.268Z,4.32
2022-10-09T00:06:22.612Z,4.10
2022-10-09T00:08:49.983Z,4.47
2022-10-09T00:11:20.105Z,4.80
2022-10-09T00:13:47.392Z,5.60
2022-10-09T00:16:16.427Z,5.18
2022-10-09T00:18:43.655Z,5.35
2022-10-09T00:21:23.347Z,5.25
2022-10-09T00:23:51.190Z,5.30
2022-10-09T00:26:18.813Z,5.25
2022-10-09T00:28:46.395Z,5.22
2022-10-09T00:31:14.092Z,5.30
2022-10-09T00:33:41.074Z,6.15
2022-10-09T00:36:17.094Z,5.38
2022-10-09T00:38:44.174Z,5.15
2022-10-09T00:41:17.629Z,4.82
2022-10-09T00:44:02.043Z,5.50
2022-10-09T00:46:33.638Z,5.25
2022-10-09T00:49:22.549Z,5.50
2022-10-09T00:51:51.679Z,5.70
2022-10-09T00:54:23.083Z,5.05
2022-10-09T00:56:50.668Z,6.10
2022-10-09T00:59:18.292Z,6.20
2022-10-09T01:01:45.752Z,5.80
2022-10-09T01:04:12.571Z,6.05
2022-10-09T01:06:39.245Z,6.10
2022-10-09T01:09:13.029Z,5.90
2022-10-09T01:11:51.641Z,6.30
2022-10-09T01:14:27.769Z,6.20
2022-10-09T01:17:07.839Z,6.05
2022-10-09T01:20:16.545Z,5.57
2022-10-09T01:23:05.729Z,5.90
2022-10-09T01:25:53.940Z,6.47
2022-10-09T01:28:23.748Z,6.05
2022-10-09T01:30:50.790Z,6.32
2022-10-09T01:33:18.392Z,5.85
2022-10-09T01:35:46.027Z,6.97
2022-10-09T01:38:12.889Z,6.30
2022-10-09T01:40:39.730Z,5.90
2022-10-09T01:43:06.373Z,5.55
2022-10-09T01:45:41.894Z,6.60
2022-10-09T01:48:14.025Z,6.00
2022-10-09T01:50:45.217Z,5.80
2022-10-09T01:53:18.219Z,5.47
2022-10-09T01:56:04.001Z,6.43
2022-10-09T01:58:44.253Z,5.85
2022-10-09T02:01:16.567Z,6.38
2022-10-09T02:03:46.999Z,7.05
2022-10-09T02:06:16.180Z,6.15
2022-10-09T02:08:45.548Z,6.38
2022-10-09T02:11:15.048Z,5.70
2022-10-09T02:13:43.404Z,5.78
2022-10-09T02:16:21.733Z,5.70
2022-10-09T02:19:04.323Z,5.25
2022-10-09T02:21:46.427Z,5.50
2022-10-09T02:24:20.409Z,5.70
2022-10-09T02:26:47.180Z,5.50
2022-10-09T02:29:15.729Z,5.55
2022-10-09T02:31:43.757Z,5.90
2022-10-09T02:34:12.811Z,5.55
2022-10-09T02:36:40.011Z,5.85
2022-10-09T02:39:07.812Z,6.40
2022-10-09T02:41:35.178Z,5.97
2022-10-09T02:44:02.250Z,6.05
2022-10-09T02:46:29.033Z,5.93
2022-10-09T02:48:55.841Z,5.68
2022-10-09T02:51:22.647Z,5.88
2022-10-09T02:53:52.946Z,6.10
2022-10-09T02:56:20.791Z,5.10
2022-10-09T02:58:47.580Z,5.20
2022-10-09T03:01:14.977Z,5.70
2022-10-09T03:03:41.829Z,6.70
2022-10-09T03:06:16.933Z,6.38
2022-10-09T03:08:46.630Z,6.93
2022-10-09T03:11:14.428Z,6.80
2022-10-09T03:13:41.232Z,6.50
2022-10-09T03:16:11.048Z,6.10
2022-10-09T03:18:38.105Z,7.15
2022-10-09T03:21:09.749Z,6.28
2022-10-09T03:23:37.500Z,6.10
2022-10-09T03:26:07.663Z,7.45
2022-10-09T03:28:40.247Z,6.65
2022-10-09T03:31:50.525Z,7.32
2022-10-09T03:34:13.801Z,6.60
2022-10-09T03:36:40.756Z,6.10
2022-10-09T03:39:07.870Z,6.63
2022-10-09T03:41:34.593Z,5.82
2022-10-09T03:44:01.336Z,6.13
2022-10-09T03:46:28.247Z,6.78
2022-10-09T03:48:55.395Z,7.45
2022-10-09T03:51:22.047Z,8.57
2022-10-09T03:53:48.793Z,9.07
2022-10-09T03:56:15.457Z,9.75
2022-10-09T03:58:42.141Z,8.20
2022-10-09T04:01:08.975Z,8.30
2022-10-09T04:03:35.858Z,8.15
2022-10-09T04:06:02.549Z,8.00
2022-10-09T04:08:29.385Z,8.10
2022-10-09T04:11:00.470Z,9.02
2022-10-09T04:13:27.625Z,8.15
2022-10-09T04:15:55.275Z,7.93
2022-10-09T04:18:22.860Z,8.30
2022-10-09T04:20:51.484Z,8.25
2022-10-09T04:23:19.202Z,9.90
2022-10-09T04:25:46.506Z,8.63
2022-10-09T04:28:13.450Z,8.80
2022-10-09T04:30:40.274Z,10.27
2022-10-09T04:33:11.786Z,9.93
2022-10-09T04:35:44.219Z,10.05
2022-10-09T04:38:11.415Z,9.43
2022-10-09T04:40:38.194Z,8.85
2022-10-09T04:43:04.883Z,9.70
2022-10-09T04:45:31.669Z,7.95
2022-10-09T04:47:58.679Z,10.00
2022-10-09T04:50:25.433Z,8.30
2022-10-09T04:52:52.219Z,8.88
2022-10-09T04:55:18.969Z,8.35
2022-10-09T04:57:45.659Z,8.30
2022-10-09T05:00:13.437Z,9.20
2022-10-09T05:02:40.422Z,10.30
2022-10-09T05:05:07.659Z,8.95
2022-10-09T05:07:34.336Z,10.35
2022-10-09T05:10:00.994Z,9.43
2022-10-09T05:12:27.815Z,8.73
2022-10-09T05:14:54.516Z,8.55
2022-10-09T05:17:23.496Z,9.63
2022-10-09T05:19:50.566Z,10.02
2022-10-09T05:22:17.217Z,8.63
2022-10-09T05:24:43.903Z,8.30
2022-10-09T05:27:10.773Z,9.82
2022-10-09T05:29:37.416Z,10.27
2022-10-09T05:32:04.243Z,10.38
2022-10-09T05:34:30.999Z,8.40
2022-10-09T05:36:57.739Z,9.75
2022-10-09T05:39:24.697Z,9.45
2022-10-09T05:41:51.446Z,9.35
2022-10-09T05:44:18.194Z,9.45
2022-10-09T05:46:44.856Z,10.32
2022-10-09T05:49:12.210Z,8.85
2022-10-09T05:51:40.311Z,9.85
2022-10-09T05:54:07.459Z,10.27
2022-10-09T05:56:38.742Z,9.30
2022-10-09T05:59:10.844Z,9.98
2022-10-09T06:01:39.998Z,8.80
2022-10-09T06:04:10.910Z,9.63
2022-10-09T06:06:39.025Z,9.80
2022-10-09T06:09:07.102Z,10.20
2022-10-09T06:11:36.246Z,10.20
2022-10-09T06:14:05.886Z,9.65
2022-10-09T06:16:36.015Z,8.43
2022-10-09T06:19:04.476Z,9.13
2022-10-09T06:21:32.258Z,9.85
2022-10-09T06:24:01.068Z,9.10
2022-10-09T06:26:29.314Z,9.02
2022-10-09T06:28:57.120Z,9.27
2022-10-09T06:31:26.209Z,9.18
2022-10-09T06:33:53.959Z,8.27
2022-10-09T06:36:22.112Z,10.10
2022-10-09T06:38:49.596Z,9.85
2022-10-09T06:41:21.685Z,8.45
2022-10-09T06:43:50.962Z,9.55
2022-10-09T06:46:18.444Z,9.98
2022-10-09T06:48:45.310Z,9.10
2022-10-09T06:51:14.609Z,9.93
2022-10-09T06:53:44.317Z,8.95
2022-10-09T06:56:12.391Z,11.18
2022-10-09T06:58:40.515Z,9.32
2022-10-09T07:01:11.151Z,9.63
2022-10-09T07:03:39.481Z,9.90
2022-10-09T07:06:18.910Z,9.70
2022-10-09T07:08:49.337Z,10.20
2022-10-09T07:11:21.964Z,9.20
2022-10-09T07:13:51.804Z,9.85
2022-10-09T07:16:27.087Z,8.77
2022-10-09T07:18:55.216Z,9.95
2022-10-09T07:21:22.634Z,9.82
2022-10-09T07:23:49.418Z,10.13
2022-10-09T07:26:24.289Z,9.30
2022-10-09T07:28:51.616Z,9.55
2022-10-09T07:31:18.466Z,9.98
2022-10-09T07:33:52.790Z,9.73
2022-10-09T07:36:20.238Z,11.38
2022-10-09T07:38:52.495Z,10.25
2022-10-09T07:41:20.106Z,10.13
2022-10-09T07:43:47.072Z,9.65
2022-10-09T07:46:16.181Z,10.32
2022-10-09T07:48:43.409Z,10.20
2022-10-09T07:51:13.355Z,10.80
2022-10-09T07:53:40.187Z,10.32
2022-10-09T07:56:07.759Z,9.88
2022-10-09T07:58:34.783Z,10.48
2022-10-09T08:01:06.675Z,10.57
2022-10-09T08:03:34.454Z,9.05
2022-10-09T08:06:01.538Z,8.88
2022-10-09T08:08:28.588Z,8.63
2022-10-09T08:10:55.335Z,8.73
2022-10-09T08:13:22.376Z,9.70
2022-10-09T08:15:49.267Z,8.27
2022-10-09T08:18:16.425Z,8.98
2022-10-09T08:20:43.176Z,8.98
2022-10-09T08:23:09.890Z,8.68
2022-10-09T08:25:37.425Z,8.50
2022-10-09T08:28:05.241Z,8.52
2022-10-09T08:30:32.241Z,7.78
2022-10-09T08:32:58.918Z,8.20
2022-10-09T08:35:25.616Z,7.50
2022-10-09T08:37:52.595Z,8.07
2022-10-09T08:40:27.192Z,7.95
2022-10-09T08:43:02.513Z,7.78
2022-10-09T08:45:30.610Z,7.72
2022-10-09T08:48:05.837Z,6.97
2022-10-09T08:50:38.303Z,7.63
2022-10-09T08:53:26.742Z,8.55
2022-10-09T08:55:59.435Z,7.60
2022-10-09T08:58:30.996Z,7.78
2022-10-09T09:01:15.716Z,7.40
2022-10-09T09:03:57.383Z,8.45
2022-10-09T09:06:57.548Z,7.65
2022-10-09T09:09:36.132Z,7.78
2022-10-09T09:12:22.131Z,8.35
2022-10-09T09:15:10.656Z,7.88
2022-10-09T09:18:04.616Z,7.60
2022-10-09T09:20:43.372Z,7.55
2022-10-09T09:23:15.375Z,7.00
2022-10-09T09:25:44.212Z,7.50
2022-10-09T09:28:35.234Z,6.57
2022-10-09T09:31:20.955Z,7.03
2022-10-09T09:34:10.460Z,6.45
2022-10-09T09:36:57.603Z,6.18
2022-10-09T09:42:20.373Z,6.13
2022-10-09T09:45:07.730Z,6.40
2022-10-09T09:47:40.339Z,5.90
2022-10-09T09:50:18.414Z,6.20
2022-10-09T09:52:50.773Z,5.75
2022-10-09T09:55:32.667Z,5.75
2022-10-09T09:58:06.112Z,5.78
2022-10-09T10:00:34.139Z,6.47
2022-10-09T10:03:09.217Z,5.80
2022-10-09T10:05:37.615Z,5.50
2022-10-09T10:08:29.754Z,5.90
2022-10-09T10:11:00.074Z,5.10
2022-10-09T10:13:38.165Z,5.53
2022-10-09T10:16:07.147Z,5.53
2022-10-09T10:18:39.809Z,5.18
2022-10-09T10:21:14.964Z,4.20
2022-10-09T10:23:44.676Z,4.40
2022-10-09T10:26:39.550Z,4.32
2022-10-09T10:29:19.678Z,4.40
2022-10-09T10:32:15.837Z,3.78
2022-10-09T10:35:06.847Z,3.70
2022-10-09T10:37:47.722Z,4.22
2022-10-09T10:40:24.801Z,3.92
2022-10-09T10:43:16.175Z,3.55
2022-10-09T10:46:04.748Z,2.85
2022-10-09T10:48:41.405Z,3.08
2022-10-09T10:51:26.245Z,3.15
2022-10-09T10:56:39.212Z,3.10
2022-10-09T11:02:01.924Z,3.55
2022-10-09T11:04:34.632Z,2.95
2022-10-09T11:07:27.435Z,3.38
2022-10-09T11:10:18.463Z,3.35
2022-10-09T11:12:55.225Z,3.58
2022-10-09T11:15:42.629Z,3.58
2022-10-09T11:18:24.396Z,3.97
2022-10-09T11:21:22.180Z,3.45
2022-10-09T11:24:29.229Z,3.70
2022-10-09T11:27:10.392Z,3.67
2022-10-09T11:29:43.624Z,3.35
2022-10-09T11:32:21.813Z,4.10
2022-10-09T11:35:02.148Z,3.47
2022-10-09T11:37:34.983Z,3.30
2022-10-09T11:40:16.874Z,3.97
2022-10-09T11:43:14.172Z,3.50
2022-10-09T11:46:03.461Z,3.67
2022-10-09T11:49:05.082Z,3.63
2022-10-09T11:51:57.415Z,3.80
2022-10-09T11:54:27.430Z,4.15
2022-10-09T11:56:54.452Z,4.18
2022-10-09T11:59:25.872Z,4.43
2022-10-09T12:01:52.852Z,4.22
2022-10-09T12:04:50.077Z,4.13
2022-10-09T12:09:59.592Z,5.05
2022-10-09T12:12:26.735Z,4.55
2022-10-09T12:14:53.992Z,4.70
2022-10-09T12:17:23.702Z,4.68
2022-10-09T12:20:00.922Z,4.80
2022-10-09T12:22:35.822Z,4.53
2022-10-09T12:25:14.196Z,5.05
2022-10-09T12:27:41.641Z,4.53
2022-10-09T12:30:12.776Z,4.40
2022-10-09T12:33:00.755Z,4.00
2022-10-09T12:35:39.333Z,3.88
2022-10-09T12:38:25.114Z,3.80
2022-10-09T12:40:53.606Z,4.32
2022-10-09T12:43:23.316Z,4.90
2022-10-09T12:45:53.061Z,4.13
2022-10-09T12:48:26.019Z,4.00
2022-10-09T12:50:53.404Z,4.45
2022-10-09T12:53:23.716Z,4.75
2022-10-09T12:55:53.507Z,3.95
2022-10-09T12:58:29.656Z,4.30
2022-10-09T13:01:00.395Z,4.28
2022-10-09T13:03:37.325Z,4.25
2022-10-09T13:06:07.112Z,4.70
2022-10-09T13:08:37.523Z,4.10
2022-10-09T13:11:31.294Z,4.20
2022-10-09T13:13:58.617Z,4.90
2022-10-09T13:16:26.202Z,3.80
2022-10-09T13:19:01.641Z,4.40
2022-10-09T13:21:34.354Z,4.10
2022-10-09T13:24:10.474Z,4.07
2022-10-09T13:26:38.914Z,4.32
2022-10-09T13:29:06.525Z,4.13
2022-10-09T13:31:33.919Z,4.43
2022-10-09T13:34:09.675Z,4.50
2022-10-09T13:36:36.385Z,4.30
2022-10-09T13:39:03.692Z,4.25
2022-10-09T13:41:31.641Z,4.22
2022-10-09T13:43:58.608Z,4.30
2022-10-09T13:46:25.332Z,3.67
2022-10-09T13:48:52.172Z,4.55
2022-10-09T13:51:18.825Z,4.85
2022-10-09T13:53:45.473Z,4.40
2022-10-09T13:56:12.196Z,4.50
2022-10-09T13:58:38.958Z,5.00
2022-10-09T14:01:05.976Z,4.75
2022-10-09T14:03:32.803Z,4.72
2022-10-09T14:06:00.805Z,4.28
2022-10-09T14:08:27.599Z,4.50
2022-10-09T14:10:54.651Z,4.78
2022-10-09T14:13:21.790Z,4.63
2022-10-09T14:15:49.083Z,4.70
2022-10-09T14:18:15.904Z,3.67
2022-10-09T14:20:42.792Z,4.50
2022-10-09T14:23:09.488Z,4.72
2022-10-09T14:25:36.275Z,4.65
2022-10-09T14:28:03.671Z,4.80
2022-10-09T14:30:31.196Z,5.18
2022-10-09T14:32:58.915Z,5.20
2022-10-09T14:35:25.956Z,5.30
2022-10-09T14:37:52.621Z,5.55
2022-10-09T14:40:19.464Z,5.18
2022-10-09T14:42:46.322Z,5.70
2022-10-09T14:45:13.144Z,5.85
2022-10-09T14:47:39.948Z,5.32
2022-10-09T14:50:07.843Z,5.28
2022-10-09T14:52:34.657Z,5.47
2022-10-09T14:55:01.351Z,5.20
2022-10-09T14:57:32.876Z,4.78
2022-10-09T15:00:02.260Z,4.85
2022-10-09T15:02:28.986Z,5.53
2022-10-09T15:04:55.951Z,5.00
2022-10-09T15:07:22.639Z,5.82
2022-10-09T15:09:49.375Z,5.65
2022-10-09T15:12:16.166Z,5.55
2022-10-09T15:14:42.831Z,6.20
2022-10-09T15:17:09.591Z,5.63
2022-10-09T15:19:36.274Z,5.53
2022-10-09T15:22:03.242Z,5.88
2022-10-09T15:24:29.957Z,5.93
2022-10-09T15:26:56.631Z,5.28
2022-10-09T15:29:23.452Z,5.50
2022-10-09T15:31:51.611Z,5.97
2022-10-09T15:34:19.489Z,6.63
2022-10-09T15:36:46.870Z,6.35
2022-10-09T15:39:14.289Z,6.40
2022-10-09T15:41:42.781Z,6.00
2022-10-09T15:44:16.262Z,5.68
2022-10-09T15:46:43.874Z,6.05
2022-10-09T15:49:11.211Z,6.13
2022-10-09T15:51:38.710Z,5.60
2022-10-09T15:54:06.283Z,6.07
2022-10-09T15:56:38.800Z,5.53
2022-10-09T15:59:06.715Z,5.50
2022-10-09T16:01:33.568Z,5.95
2022-10-09T16:04:00.297Z,5.18
2022-10-09T16:06:27.268Z,5.80
2022-10-09T16:08:58.277Z,5.32
2022-10-09T16:11:26.687Z,5.75
2022-10-09T16:13:54.954Z,6.15
2022-10-09T16:16:24.982Z,5.70
2022-10-09T16:18:52.375Z,5.50
2022-10-09T16:21:26.068Z,5.70
2022-10-09T16:23:58.138Z,6.10
2022-10-09T16:26:27.018Z,5.80
2022-10-09T16:28:54.070Z,7.57
2022-10-09T16:31:41.105Z,5.07
2022-10-09T16:34:08.184Z,5.90
2022-10-09T16:36:34.953Z,4.93
2022-10-09T16:39:01.861Z,6.10
2022-10-09T16:41:28.556Z,5.13
2022-10-09T16:43:56.613Z,5.25
2022-10-09T16:46:28.233Z,6.18
2022-10-09T16:48:56.984Z,5.28
2022-10-09T16:51:34.940Z,5.50
2022-10-09T16:54:03.914Z,5.95
2022-10-09T16:56:33.309Z,5.50
2022-10-09T16:59:02.078Z,5.03
2022-10-09T17:01:28.919Z,5.72
2022-10-09T17:03:59.912Z,6.07
2022-10-09T17:06:27.553Z,6.07
2022-10-09T17:08:57.546Z,5.90
2022-10-09T17:11:26.250Z,6.18
2022-10-09T17:13:56.745Z,5.57
2022-10-09T17:16:26.836Z,5.70
2022-10-09T17:18:54.546Z,5.55
2022-10-09T17:21:21.490Z,5.57
2022-10-09T17:23:48.433Z,5.57
2022-10-09T17:26:17.870Z,5.03
2022-10-09T17:28:46.408Z,5.50
2022-10-09T17:31:16.840Z,6.20
2022-10-09T17:33:46.327Z,6.68
2022-10-09T17:36:16.032Z,6.05
2022-10-09T17:38:43.217Z,6.00
2022-10-09T17:41:12.423Z,6.45
2022-10-09T17:43:39.583Z,7.43
2022-10-09T17:46:06.997Z,6.72
2022-10-09T17:48:34.697Z,6.93
2022-10-09T17:51:03.977Z,6.32
2022-10-09T17:53:31.188Z,6.63
2022-10-09T17:56:02.881Z,7.63
2022-10-09T17:58:30.081Z,6.65
2022-10-09T18:00:56.950Z,7.68
2022-10-09T18:03:24.077Z,7.80
2022-10-09T18:05:51.395Z,7.72
2022-10-09T18:08:20.023Z,6.75
2022-10-09T18:10:47.096Z,7.10
2022-10-09T18:13:14.318Z,6.65
2022-10-09T18:15:43.013Z,6.72
2022-10-09T18:18:11.063Z,6.63
2022-10-09T18:20:38.628Z,8.45
2022-10-09T18:23:05.791Z,7.07
2022-10-09T18:25:33.316Z,7.32
2022-10-09T18:28:00.204Z,7.88
2022-10-09T18:30:27.722Z,7.88
2022-10-09T18:32:54.597Z,7.47
2022-10-09T18:35:21.280Z,8.10
2022-10-09T18:37:47.945Z,8.18
2022-10-09T18:40:14.925Z,9.02
2022-10-09T18:42:41.690Z,8.65
2022-10-09T18:45:12.632Z,8.45
2022-10-09T18:47:40.516Z,7.82
2022-10-09T18:50:10.784Z,8.07
2022-10-09T18:52:37.889Z,8.32
2022-10-09T18:55:07.565Z,8.48
2022-10-09T18:57:34.566Z,8.35
2022-10-09T19:00:02.135Z,9.10
2022-10-09T19:02:28.830Z,8.50
2022-10-09T19:04:55.628Z,8.60
2022-10-09T19:07:22.610Z,9.02
2022-10-09T19:09:53.577Z,9.45
2022-10-09T19:12:21.694Z,9.23
2022-10-09T19:14:48.364Z,9.52
2022-10-09T19:17:15.192Z,10.20
2022-10-09T19:19:41.963Z,7.72
2022-10-09T19:22:14.086Z,7.65
2022-10-09T19:24:42.482Z,7.88
2022-10-09T19:27:09.505Z,8.65
2022-10-09T19:29:36.512Z,8.38
2022-10-09T19:32:03.360Z,8.70
2022-10-09T19:34:30.313Z,9.27
2022-10-09T19:36:57.200Z,10.38
2022-10-09T19:39:24.027Z,9.55
2022-10-09T19:41:51.173Z,10.23
2022-10-09T19:44:18.301Z,9.63
2022-10-09T19:46:45.753Z,8.63
2022-10-09T19:49:12.591Z,8.70
2022-10-09T19:51:39.267Z,9.82
2022-10-09T19:54:07.688Z,8.15
2022-10-09T19:56:36.099Z,10.57
2022-10-09T19:59:06.704Z,10.43
2022-10-09T20:01:35.594Z,10.00
2022-10-09T20:04:05.731Z,9.57
2022-10-09T20:06:32.642Z,9.25
2022-10-09T20:08:59.360Z,8.98
2022-10-09T20:11:26.924Z,9.65
2022-10-09T20:13:56.123Z,9.20
2022-10-09T20:16:24.236Z,8.45
2022-10-09T20:18:51.006Z,9.00
2022-10-09T20:21:18.656Z,9.30
2022-10-09T20:23:45.574Z,9.73
2022-10-09T20:26:15.418Z,8.32
2022-10-09T20:28:43.680Z,8.77
2022-10-09T20:31:18.042Z,9.18
2022-10-09T20:33:46.159Z,8.60
2022-10-09T20:36:35.434Z,8.93
2022-10-09T20:39:05.772Z,8.65
2022-10-09T20:41:32.742Z,8.30
2022-10-09T20:44:01.571Z,8.35
2022-10-09T20:46:30.349Z,8.48
2022-10-09T20:48:57.204Z,8.48
2022-10-09T20:51:24.441Z,8.55
2022-10-09T20:53:53.331Z,7.80
2022-10-09T20:56:19.983Z,7.97
2022-10-09T20:58:46.680Z,7.55
2022-10-09T21:01:16.102Z,7.57
2022-10-09T21:03:43.651Z,7.70
2022-10-09T21:06:13.536Z,7.97
2022-10-09T21:08:40.698Z,8.23
2022-10-09T21:11:09.745Z,7.45
2022-10-09T21:13:37.294Z,7.60
2022-10-09T21:16:09.007Z,8.80
2022-10-09T21:18:36.672Z,8.38
2022-10-09T21:21:15.453Z,8.65
2022-10-09T21:23:42.332Z,7.70
2022-10-09T21:26:14.526Z,7.55
2022-10-09T21:28:41.936Z,7.53
2022-10-09T21:31:18.036Z,7.80
2022-10-09T21:33:45.495Z,8.00
2022-10-09T21:36:25.380Z,8.15
2022-10-09T21:38:52.116Z,8.02
2022-10-09T21:41:18.764Z,7.68
2022-10-09T21:43:45.587Z,7.50
2022-10-09T21:46:12.336Z,7.32
2022-10-09T21:48:39.139Z,8.27
2022-10-09T21:51:05.887Z,8.90
2022-10-09T21:53:32.905Z,8.43
2022-10-09T21:55:59.561Z,7.72
2022-10-09T21:58:26.254Z,7.40
2022-10-09T22:01:01.084Z,7.57
2022-10-09T22:03:29.716Z,7.63
2022-10-09T22:05:56.500Z,7.72
2022-10-09T22:08:23.843Z,7.72
2022-10-09T22:10:50.643Z,7.55
2022-10-09T22:13:18.459Z,8.20
2022-10-09T22:15:48.906Z,7.20
2022-10-09T22:18:16.957Z,8.35
2022-10-09T22:20:46.243Z,7.72
2022-10-09T22:23:14.052Z,7.32
2022-10-09T22:25:40.721Z,8.27
2022-10-09T22:28:07.784Z,7.57
2022-10-09T22:30:35.203Z,7.15
2022-10-09T22:33:02.218Z,7.38
2022-10-09T22:35:29.030Z,6.88
2022-10-09T22:37:57.290Z,7.10
2022-10-09T22:40:24.000Z,7.57
2022-10-09T22:42:51.083Z,7.00
2022-10-09T22:45:17.952Z,6.43
2022-10-09T22:47:47.421Z,6.28
2022-10-09T22:50:14.164Z,7.07
2022-10-09T22:52:40.886Z,5.97
2022-10-09T22:55:08.053Z,6.40
2022-10-09T22:57:34.769Z,6.10
2022-10-09T23:00:01.481Z,5.43
2022-10-09T23:02:28.225Z,5.50
2022-10-09T23:04:55.016Z,6.68
2022-10-09T23:07:21.744Z,6.75
2022-10-09T23:09:48.453Z,5.82
2022-10-09T23:12:15.890Z,6.80
2022-10-09T23:14:42.597Z,8.07
2022-10-09T23:17:09.238Z,6.32
2022-10-09T23:19:36.308Z,6.97
2022-10-09T23:22:02.997Z,8.60
2022-10-09T23:24:29.658Z,7.65
2022-10-09T23:26:56.339Z,7.78
2022-10-09T23:29:22.999Z,7.60
2022-10-09T23:31:52.565Z,6.97
2022-10-09T23:34:19.256Z,6.35
2022-10-09T23:36:45.999Z,5.00
2022-10-09T23:39:13.099Z,4.93
2022-10-09T23:41:39.929Z,6.10
2022-10-09T23:44:06.664Z,5.88
2022-10-09T23:46:33.903Z,5.50
2022-10-09T23:49:00.893Z,5.78
2022-10-09T23:51:28.384Z,6.22
2022-10-09T23:53:55.241Z,6.78
2022-10-09T23:56:32.237Z,7.07
2022-10-09T23:59:00.357Z,7.70
